createdAt,value
2018-07-01T00:01:14.193Z,68.13
2018-07-01T00:03:43.937Z,68.48
2018-07-01T00:06:13.778Z,69.57
2018-07-01T00:08:43.510Z,68.47
2018-07-01T00:11:13.443Z,68.40
2018-07-01T00:13:43.146Z,69.60
2018-07-01T00:16:13.457Z,70.10
2018-07-01T00:18:43.163Z,69.96
2018-07-01T00:21:13.185Z,68.02
2018-07-01T00:23:43.103Z,67.00
2018-07-01T00:26:13.059Z,67.61
2018-07-01T00:28:42.917Z,67.85
2018-07-01T00:31:12.925Z,68.01
2018-07-01T00:33:43.045Z,67.22
2018-07-01T00:36:12.948Z,68.78
2018-07-01T00:38:43.039Z,68.22
2018-07-01T00:41:12.930Z,67.70
2018-07-01T00:43:43.137Z,68.56
2018-07-01T00:46:12.919Z,68.65
2018-07-01T00:48:42.718Z,65.83
2018-07-01T00:51:12.661Z,66.43
2018-07-01T00:53:43.111Z,66.74
2018-07-01T00:56:12.865Z,67.67
2018-07-01T00:58:42.770Z,70.28
2018-07-01T01:01:12.486Z,69.86
2018-07-01T01:03:42.432Z,70.10
2018-07-01T01:06:12.520Z,71.70
2018-07-01T01:08:42.831Z,72.70
2018-07-01T01:11:12.944Z,71.35
2018-07-01T01:13:42.848Z,71.31
2018-07-01T01:16:12.691Z,69.14
2018-07-01T01:18:42.925Z,68.97
2018-07-01T01:21:12.886Z,69.56
2018-07-01T01:23:42.722Z,70.44
2018-07-01T01:26:12.423Z,68.43
2018-07-01T01:28:42.364Z,68.76
2018-07-01T01:31:12.440Z,71.88
2018-07-01T01:33:42.476Z,71.67
2018-07-01T01:36:12.526Z,69.78
2018-07-01T01:38:43.571Z,69.96
2018-07-01T01:41:17.318Z,71.18
2018-07-01T01:43:52.294Z,71.66
2018-07-01T01:46:31.373Z,72.92
2018-07-01T01:49:20.710Z,72.41
2018-07-01T01:51:57.770Z,71.72
2018-07-01T01:54:34.648Z,73.02
2018-07-01T01:57:12.350Z,72.84
2018-07-01T01:59:48.768Z,73.70
2018-07-01T02:02:38.031Z,73.98
2018-07-01T02:05:15.809Z,72.88
2018-07-01T02:07:52.606Z,72.68
2018-07-01T02:10:22.902Z,72.52
2018-07-01T02:12:52.972Z,72.99
2018-07-01T02:15:40.882Z,73.42
2018-07-01T02:18:11.203Z,73.75
2018-07-01T02:20:42.406Z,73.73
2018-07-01T02:23:15.812Z,74.25
2018-07-01T02:25:46.051Z,73.38
2018-07-01T02:28:15.961Z,73.62
2018-07-01T02:30:45.731Z,74.60
2018-07-01T02:33:15.602Z,75.61
2018-07-01T02:35:45.551Z,76.30
2018-07-01T02:38:15.447Z,75.79
2018-07-01T02:40:45.269Z,76.25
2018-07-01T02:43:15.151Z,76.11
2018-07-01T02:45:45.256Z,76.27
2018-07-01T02:48:15.338Z,76.67
2018-07-01T02:50:45.092Z,76.68
2018-07-01T02:53:14.924Z,76.59
2018-07-01T02:55:44.925Z,77.13
2018-07-01T02:58:14.865Z,77.58
2018-07-01T03:00:44.666Z,77.02
2018-07-01T03:03:14.547Z,75.38
2018-07-01T03:05:44.292Z,75.81
2018-07-01T03:08:14.218Z,76.98
2018-07-01T03:10:44.125Z,77.10
2018-07-01T03:13:13.925Z,76.10
2018-07-01T03:15:43.716Z,76.63
2018-07-01T03:18:13.597Z,77.77
2018-07-01T03:20:43.387Z,77.79
2018-07-01T03:23:13.455Z,75.89
2018-07-01T03:25:43.657Z,74.49
2018-07-01T03:28:13.610Z,75.08
2018-07-01T03:30:43.553Z,75.52
2018-07-01T03:33:13.390Z,75.78
2018-07-01T03:35:43.112Z,76.29
2018-07-01T03:38:12.997Z,75.91
2018-07-01T03:40:42.910Z,75.57
2018-07-01T03:43:13.037Z,75.56
2018-07-01T03:45:42.930Z,75.81
2018-07-01T03:48:14.077Z,75.00
2018-07-01T03:50:43.956Z,77.56
2018-07-01T03:53:15.701Z,76.79
2018-07-01T03:55:45.528Z,77.21
2018-07-01T03:58:17.088Z,77.45
2018-07-01T04:00:47.014Z,77.60
2018-07-01T04:03:18.515Z,77.41
2018-07-01T04:05:48.799Z,77.86
2018-07-01T04:08:20.174Z,77.16
2018-07-01T04:10:50.196Z,77.84
2018-07-01T04:13:21.374Z,77.37
2018-07-01T04:15:51.336Z,76.62
2018-07-01T04:18:21.855Z,75.84
2018-07-01T04:20:51.816Z,76.19
2018-07-01T04:23:23.215Z,76.51
2018-07-01T04:25:53.256Z,77.00
2018-07-01T04:28:23.997Z,76.52
2018-07-01T04:30:54.064Z,76.19
2018-07-01T04:33:25.718Z,76.73
2018-07-01T04:35:55.551Z,75.46
2018-07-01T04:38:26.913Z,75.70
2018-07-01T04:40:56.732Z,75.69
2018-07-01T04:43:27.433Z,76.61
2018-07-01T04:45:57.412Z,75.35
2018-07-01T04:48:29.014Z,73.78
2018-07-01T04:50:58.973Z,72.92
2018-07-01T04:53:29.877Z,73.15
2018-07-01T04:55:59.975Z,73.12
2018-07-01T04:58:31.653Z,71.22
2018-07-01T05:01:01.413Z,67.32
2018-07-01T05:03:31.381Z,68.80
2018-07-01T05:06:01.254Z,69.64
2018-07-01T05:08:31.039Z,70.96
2018-07-01T05:11:01.021Z,71.05
2018-07-01T05:13:32.212Z,69.92
2018-07-01T05:16:02.213Z,70.39
2018-07-01T05:18:32.286Z,70.32
2018-07-01T05:21:02.172Z,68.45
2018-07-01T05:23:31.971Z,68.32
2018-07-01T05:26:02.276Z,67.71
2018-07-01T05:28:32.270Z,67.32
2018-07-01T05:31:02.224Z,67.99
2018-07-01T05:33:31.977Z,70.12
2018-07-01T05:36:01.932Z,68.76
2018-07-01T05:38:31.852Z,65.99
2018-07-01T05:41:01.773Z,64.66
2018-07-01T05:43:31.511Z,65.01
2018-07-01T05:46:01.554Z,65.53
2018-07-01T05:48:31.432Z,64.19
2018-07-01T05:51:01.434Z,58.60
2018-07-01T05:53:31.172Z,57.89
2018-07-01T05:56:01.392Z,57.99
2018-07-01T05:58:31.451Z,59.88
2018-07-01T06:01:01.532Z,56.59
2018-07-01T06:03:32.013Z,57.44
2018-07-01T06:06:02.318Z,58.41
2018-07-01T06:08:33.255Z,58.95
2018-07-01T06:11:04.469Z,56.51
2018-07-01T06:13:34.409Z,56.09
2018-07-01T06:16:04.191Z,55.28
2018-07-01T06:18:34.130Z,55.87
2018-07-01T06:21:06.197Z,54.64
2018-07-01T06:23:36.032Z,54.11
2018-07-01T06:26:06.712Z,53.82
2018-07-01T06:28:36.560Z,53.76
2018-07-01T06:31:06.546Z,52.50
2018-07-01T06:33:36.624Z,53.20
2018-07-01T06:36:06.436Z,49.09
2018-07-01T06:38:36.503Z,47.24
2018-07-01T06:41:06.221Z,47.86
2018-07-01T06:43:36.359Z,51.48
2018-07-01T06:46:07.651Z,46.62
2018-07-01T06:48:37.820Z,46.89
2018-07-01T06:51:08.175Z,48.74
2018-07-01T06:53:38.272Z,47.41
2018-07-01T06:56:08.303Z,49.21
2018-07-01T06:58:38.130Z,48.29
2018-07-01T07:01:08.020Z,49.27
2018-07-01T07:03:38.100Z,49.10
2018-07-01T07:06:07.947Z,48.64
2018-07-01T07:08:38.010Z,47.72
2018-07-01T07:11:08.686Z,47.19
2018-07-01T07:13:38.971Z,48.56
2018-07-01T07:16:08.971Z,46.94
2018-07-01T07:18:39.079Z,46.98
2018-07-01T07:21:08.760Z,47.91
2018-07-01T07:23:39.187Z,48.57
2018-07-01T07:26:09.292Z,46.46
2018-07-01T07:28:39.602Z,45.17
2018-07-01T07:31:09.543Z,44.79
2018-07-01T07:33:51.544Z,45.58
2018-07-01T07:36:21.451Z,45.83
2018-07-01T07:38:51.843Z,44.78
2018-07-01T07:41:21.736Z,44.71
2018-07-01T07:43:51.648Z,45.10
2018-07-01T07:46:21.385Z,44.70
2018-07-01T07:48:51.237Z,43.91
2018-07-01T07:51:21.196Z,44.31
2018-07-01T07:53:51.087Z,44.02
2018-07-01T07:56:20.787Z,42.41
2018-07-01T07:58:50.872Z,43.54
2018-07-01T08:01:20.673Z,43.61
2018-07-01T08:03:50.768Z,43.18
2018-07-01T08:06:20.498Z,43.11
2018-07-01T08:08:50.316Z,43.42
2018-07-01T08:11:20.321Z,44.32
2018-07-01T08:13:50.394Z,43.67
2018-07-01T08:16:20.163Z,41.08
2018-07-01T08:18:50.040Z,42.74
2018-07-01T08:21:19.916Z,42.45
2018-07-01T08:23:49.723Z,42.33
2018-07-01T08:26:19.559Z,41.51
2018-07-01T08:28:49.606Z,43.23
2018-07-01T08:31:19.487Z,41.87
2018-07-01T08:33:49.313Z,42.12
2018-07-01T08:36:19.191Z,41.76
2018-07-01T08:38:49.051Z,42.45
2018-07-01T08:41:18.998Z,42.82
2018-07-01T08:43:48.856Z,44.45
2018-07-01T08:46:18.651Z,44.04
2018-07-01T08:48:48.646Z,41.15
2018-07-01T08:51:18.378Z,40.94
2018-07-01T08:53:48.263Z,42.20
2018-07-01T08:56:17.944Z,42.30
2018-07-01T08:58:47.667Z,41.73
2018-07-01T09:01:17.576Z,42.88
2018-07-01T09:03:48.451Z,41.52
2018-07-01T09:06:18.209Z,41.55
2018-07-01T09:08:49.086Z,41.91
2018-07-01T09:11:19.026Z,42.10
2018-07-01T09:13:50.262Z,42.80
2018-07-01T09:16:20.146Z,41.16
2018-07-01T09:18:50.891Z,39.94
2018-07-01T09:21:20.995Z,41.70
2018-07-01T09:23:52.618Z,42.44
2018-07-01T09:26:22.548Z,40.63
2018-07-01T09:28:54.429Z,41.04
2018-07-01T09:31:24.450Z,41.02
2018-07-01T09:33:54.856Z,41.23
2018-07-01T09:36:24.730Z,40.21
2018-07-01T09:38:54.905Z,42.91
2018-07-01T09:41:25.512Z,41.94
2018-07-01T09:43:56.927Z,41.04
2018-07-01T09:46:26.905Z,43.28
2018-07-01T09:48:56.694Z,43.55
2018-07-01T09:51:26.554Z,40.39
2018-07-01T09:53:56.554Z,40.30
2018-07-01T09:56:26.664Z,39.06
2018-07-01T09:58:56.632Z,40.16
2018-07-01T10:01:26.590Z,41.18
2018-07-01T10:03:57.555Z,43.81
2018-07-01T10:06:28.222Z,42.17
2018-07-01T10:08:59.165Z,43.18
2018-07-01T10:11:29.440Z,43.17
2018-07-01T10:13:59.714Z,43.14
2018-07-01T10:16:30.156Z,37.75
2018-07-01T10:19:00.131Z,39.71
2018-07-01T10:21:30.014Z,38.87
2018-07-01T10:23:59.988Z,39.92
2018-07-01T10:26:29.950Z,39.67
2018-07-01T10:29:12.104Z,43.40
2018-07-01T10:31:42.765Z,40.91
2018-07-01T10:34:14.039Z,40.13
2018-07-01T10:36:44.194Z,40.26
2018-07-01T10:39:16.890Z,40.46
2018-07-01T10:41:47.168Z,35.72
2018-07-01T10:44:18.627Z,40.49
2018-07-01T10:46:48.393Z,39.58
2018-07-01T10:49:19.686Z,38.08
2018-07-01T10:51:49.603Z,38.76
2018-07-01T10:54:20.774Z,40.43
2018-07-01T10:56:50.628Z,40.75
2018-07-01T10:59:20.949Z,43.41
2018-07-01T11:01:50.854Z,42.84
2018-07-01T11:04:20.758Z,44.93
2018-07-01T11:06:50.539Z,37.58
2018-07-01T11:09:20.675Z,37.85
2018-07-01T11:11:50.958Z,37.67
2018-07-01T11:14:20.815Z,39.01
2018-07-01T11:16:50.847Z,43.84
2018-07-01T11:19:20.901Z,41.81
2018-07-01T11:21:50.768Z,40.42
2018-07-01T11:24:20.632Z,40.06
2018-07-01T11:26:50.735Z,39.95
2018-07-01T11:29:20.450Z,41.78
2018-07-01T11:31:50.348Z,43.45
2018-07-01T11:34:20.149Z,41.81
2018-07-01T11:36:49.971Z,40.93
2018-07-01T11:39:19.713Z,40.27
2018-07-01T11:41:49.614Z,39.21
2018-07-01T11:44:19.465Z,40.82
2018-07-01T11:46:49.334Z,38.75
2018-07-01T11:49:19.374Z,37.11
2018-07-01T11:51:49.266Z,43.03
2018-07-01T11:54:19.242Z,40.52
2018-07-01T11:56:49.152Z,38.73
2018-07-01T11:59:19.090Z,41.91
2018-07-01T12:01:49.105Z,38.87
2018-07-01T12:04:22.807Z,39.27
2018-07-01T12:06:52.770Z,40.38
2018-07-01T12:09:22.531Z,40.58
2018-07-01T12:11:52.543Z,39.69
2018-07-01T12:14:22.361Z,37.84
2018-07-01T12:16:52.235Z,42.27
2018-07-01T12:19:22.954Z,40.25
2018-07-01T12:21:52.976Z,42.42
2018-07-01T12:24:22.725Z,37.63
2018-07-01T12:26:52.812Z,36.27
2018-07-01T12:29:22.829Z,38.84
2018-07-01T12:31:52.891Z,38.02
2018-07-01T12:34:22.775Z,36.91
2018-07-01T12:36:53.166Z,39.16
2018-07-01T12:39:23.158Z,39.44
2018-07-01T12:41:53.324Z,38.03
2018-07-01T12:44:23.326Z,35.57
2018-07-01T12:46:53.448Z,39.01
2018-07-01T12:49:23.492Z,38.98
2018-07-01T12:51:53.638Z,38.44
2018-07-01T12:54:23.775Z,38.46
2018-07-01T12:56:54.038Z,35.65
2018-07-01T12:59:24.128Z,36.64
2018-07-01T13:01:54.385Z,37.25
2018-07-01T13:04:24.299Z,36.58
2018-07-01T13:06:54.379Z,37.81
2018-07-01T13:09:24.231Z,40.37
2018-07-01T13:11:54.260Z,37.21
2018-07-01T13:14:25.557Z,40.39
2018-07-01T13:16:55.691Z,35.12
2018-07-01T13:19:25.744Z,36.11
2018-07-01T13:21:55.818Z,37.62
2018-07-01T13:24:25.852Z,37.98
2018-07-01T13:26:55.959Z,37.04
2018-07-01T13:29:26.090Z,36.04
2018-07-01T13:31:56.305Z,36.89
2018-07-01T13:34:26.253Z,36.92
2018-07-01T13:36:56.632Z,36.36
2018-07-01T13:39:26.662Z,35.76
2018-07-01T13:41:56.639Z,33.25
2018-07-01T13:44:26.838Z,33.57
2018-07-01T13:46:56.929Z,34.22
2018-07-01T13:49:27.077Z,34.25
2018-07-01T13:51:57.088Z,35.35
2018-07-01T13:54:27.188Z,33.59
2018-07-01T13:56:57.335Z,35.09
2018-07-01T13:59:27.464Z,33.58
2018-07-01T14:01:57.492Z,36.63
2018-07-01T14:04:27.483Z,34.34
2018-07-01T14:06:57.615Z,35.31
2018-07-01T14:09:27.684Z,33.19
2018-07-01T14:11:58.021Z,34.21
2018-07-01T14:14:28.001Z,32.93
2018-07-01T14:16:58.280Z,31.73
2018-07-01T14:19:28.336Z,30.12
2018-07-01T14:21:58.407Z,31.25
2018-07-01T14:24:28.555Z,30.85
2018-07-01T14:26:58.560Z,32.17
2018-07-01T14:29:28.695Z,30.01
2018-07-01T14:31:58.662Z,28.89
2018-07-01T14:34:28.643Z,28.49
2018-07-01T14:36:58.841Z,27.34
2018-07-01T14:39:28.946Z,27.87
2018-07-01T14:41:59.141Z,26.62
2018-07-01T14:44:29.249Z,27.04
2018-07-01T14:46:59.496Z,27.61
2018-07-01T14:49:31.373Z,29.43
2018-07-01T14:52:01.507Z,28.29
2018-07-01T14:54:31.691Z,26.95
2018-07-01T14:57:01.916Z,26.10
2018-07-01T14:59:31.839Z,26.12
2018-07-01T15:02:02.028Z,26.02
2018-07-01T15:04:31.965Z,27.12
2018-07-01T15:07:02.096Z,28.53
2018-07-01T15:09:32.155Z,28.22
2018-07-01T15:12:02.234Z,28.70
2018-07-01T15:14:32.175Z,30.70
2018-07-01T15:17:02.256Z,31.17
2018-07-01T15:19:32.127Z,32.66
2018-07-01T15:22:02.240Z,33.73
2018-07-01T15:24:31.981Z,34.82
2018-07-01T15:27:02.063Z,33.05
2018-07-01T15:29:32.122Z,31.08
2018-07-01T15:32:02.181Z,32.97
2018-07-01T15:34:32.261Z,31.43
2018-07-01T15:37:02.362Z,31.36
2018-07-01T15:39:32.233Z,31.12
2018-07-01T15:42:02.221Z,35.07
2018-07-01T15:44:32.270Z,32.41
2018-07-01T15:47:02.380Z,34.14
2018-07-01T15:49:32.575Z,34.58
2018-07-01T15:52:02.507Z,36.06
2018-07-01T15:54:32.308Z,36.71
2018-07-01T15:57:02.389Z,35.69
2018-07-01T15:59:32.480Z,36.41
2018-07-01T16:02:02.369Z,35.79
2018-07-01T16:04:32.173Z,33.34
2018-07-01T16:07:02.222Z,31.84
2018-07-01T16:09:32.243Z,32.52
2018-07-01T16:12:02.163Z,32.67
2018-07-01T16:14:32.112Z,32.57
2018-07-01T16:17:02.034Z,34.06
2018-07-01T16:19:31.853Z,34.48
2018-07-01T16:22:01.861Z,35.02
2018-07-01T16:24:31.893Z,36.27
2018-07-01T16:27:06.844Z,36.91
2018-07-01T16:29:38.377Z,36.05
2018-07-01T16:32:08.475Z,36.47
2018-07-01T16:34:38.358Z,36.66
2018-07-01T16:37:08.325Z,38.07
2018-07-01T16:39:38.339Z,38.93
2018-07-01T16:42:08.280Z,39.65
2018-07-01T16:44:38.109Z,42.13
2018-07-01T16:47:08.181Z,40.98
2018-07-01T16:49:38.222Z,41.82
2018-07-01T16:52:08.108Z,46.61
2018-07-01T16:54:38.407Z,48.70
2018-07-01T16:57:08.861Z,49.30
2018-07-01T16:59:38.891Z,46.16
2018-07-01T17:02:08.963Z,45.08
2018-07-01T17:04:39.503Z,44.57
2018-07-01T17:07:09.425Z,44.16
2018-07-01T17:09:39.163Z,45.75
2018-07-01T17:12:09.092Z,47.18
2018-07-01T17:14:38.984Z,45.10
2018-07-01T17:17:08.926Z,45.97
2018-07-01T17:19:38.656Z,48.83
2018-07-01T17:22:08.731Z,46.80
2018-07-01T17:24:38.731Z,48.40
2018-07-01T17:27:10.424Z,52.26
2018-07-01T17:29:40.539Z,46.76
2018-07-01T17:32:16.055Z,48.55
2018-07-01T17:34:47.197Z,52.79
2018-07-01T17:37:17.154Z,51.33
2018-07-01T17:39:47.140Z,51.25
2018-07-01T17:42:17.226Z,52.38
2018-07-01T17:44:47.016Z,50.70
2018-07-01T17:47:16.934Z,49.77
2018-07-01T17:49:47.174Z,51.01
2018-07-01T17:52:17.274Z,49.87
2018-07-01T17:54:47.939Z,52.38
2018-07-01T17:57:18.356Z,51.12
2018-07-01T17:59:48.136Z,52.21
2018-07-01T18:02:18.285Z,51.69
2018-07-01T18:04:47.937Z,55.55
2018-07-01T18:07:17.846Z,54.47
2018-07-01T18:09:47.812Z,53.24
2018-07-01T18:12:17.627Z,52.54
2018-07-01T18:14:47.522Z,53.79
2018-07-01T18:17:17.502Z,55.08
2018-07-01T18:19:47.188Z,52.15
2018-07-01T18:22:35.923Z,56.20
2018-07-01T18:25:01.543Z,59.85
2018-07-01T18:27:17.133Z,53.61
2018-07-01T18:29:47.084Z,53.18
2018-07-01T18:32:16.946Z,55.58
2018-07-01T18:34:47.606Z,55.70
2018-07-01T18:37:17.524Z,54.23
2018-07-01T18:39:47.324Z,54.43
2018-07-01T18:42:17.321Z,56.41
2018-07-01T18:44:47.588Z,54.27
2018-07-01T18:47:17.432Z,59.42
2018-07-01T18:49:47.212Z,58.77
2018-07-01T18:52:17.155Z,59.88
2018-07-01T18:54:47.005Z,61.62
2018-07-01T18:57:17.083Z,63.92
2018-07-01T18:59:47.224Z,64.33
2018-07-01T19:02:17.287Z,64.54
2018-07-01T19:04:47.412Z,64.47
2018-07-01T19:07:17.470Z,64.48
2018-07-01T19:09:47.458Z,66.00
2018-07-01T19:12:17.360Z,64.14
2018-07-01T19:14:47.123Z,64.20
2018-07-01T19:17:17.075Z,63.73
2018-07-01T19:19:47.184Z,64.48
2018-07-01T19:22:17.080Z,63.69
2018-07-01T19:24:47.197Z,65.39
2018-07-01T19:27:17.040Z,65.50
2018-07-01T19:29:46.988Z,66.64
2018-07-01T19:32:16.941Z,67.65
2018-07-01T19:34:46.761Z,68.01
2018-07-01T19:37:16.775Z,64.40
2018-07-01T19:39:46.701Z,65.73
2018-07-01T19:42:16.765Z,64.44
2018-07-01T19:44:46.746Z,60.79
2018-07-01T19:47:16.719Z,59.11
2018-07-01T19:49:46.851Z,59.87
2018-07-01T19:52:16.880Z,59.27
2018-07-01T19:54:46.732Z,60.55
2018-07-01T19:57:16.801Z,58.05
2018-07-01T19:59:46.836Z,56.86
2018-07-01T20:02:16.949Z,57.26
2018-07-01T20:04:47.082Z,56.68
2018-07-01T20:07:17.728Z,57.63
2018-07-01T20:09:47.937Z,56.50
2018-07-01T20:12:19.353Z,56.24
2018-07-01T20:14:49.337Z,56.96
2018-07-01T20:17:21.308Z,57.24
2018-07-01T20:19:51.166Z,58.25
2018-07-01T20:22:22.405Z,58.85
2018-07-01T20:24:52.415Z,59.17
2018-07-01T20:27:23.855Z,59.88
2018-07-01T20:29:54.068Z,59.76
2018-07-01T20:32:25.032Z,61.11
2018-07-01T20:34:55.263Z,62.76
2018-07-01T20:37:26.738Z,60.73
2018-07-01T20:39:57.135Z,60.05
2018-07-01T20:42:28.264Z,62.69
2018-07-01T20:44:58.616Z,63.07
2018-07-01T20:47:29.899Z,65.02
2018-07-01T20:50:00.115Z,63.95
2018-07-01T20:52:31.194Z,63.19
2018-07-01T20:55:01.810Z,62.66
2018-07-01T20:57:32.863Z,59.26
2018-07-01T21:00:03.206Z,61.37
2018-07-01T21:02:34.095Z,63.30
2018-07-01T21:05:03.997Z,61.87
2018-07-01T21:07:35.509Z,65.89
2018-07-01T21:10:06.157Z,65.82
2018-07-01T21:12:37.266Z,62.48
2018-07-01T21:15:07.165Z,59.88
2018-07-01T21:17:38.973Z,61.17
2018-07-01T21:20:08.979Z,64.87
2018-07-01T21:22:40.191Z,62.55
2018-07-01T21:25:10.158Z,64.76
2018-07-01T21:27:41.692Z,64.00
2018-07-01T21:30:11.495Z,66.95
2018-07-01T21:32:42.894Z,66.86
2018-07-01T21:35:12.911Z,66.76
2018-07-01T21:37:44.358Z,65.88
2018-07-01T21:40:14.180Z,63.68
2018-07-01T21:42:45.164Z,65.31
2018-07-01T21:45:15.270Z,65.53
2018-07-01T21:47:46.565Z,66.38
2018-07-01T21:50:16.467Z,66.15
2018-07-01T21:52:48.134Z,67.74
2018-07-01T21:55:18.074Z,68.00
2018-07-01T21:57:49.734Z,67.57
2018-07-01T22:00:24.663Z,67.61
2018-07-01T22:02:54.590Z,69.28
2018-07-01T22:05:24.324Z,68.56
2018-07-01T22:07:54.294Z,68.55
2018-07-01T22:10:34.844Z,68.92
2018-07-01T22:14:08.789Z,70.37
2018-07-01T22:16:38.825Z,71.60
2018-07-01T22:19:09.092Z,71.83
2018-07-01T22:21:39.173Z,71.33
2018-07-01T22:24:09.616Z,70.52
2018-07-01T22:26:39.743Z,71.27
2018-07-01T22:29:10.474Z,69.64
2018-07-01T22:31:40.439Z,69.62
2018-07-01T22:34:11.504Z,69.50
2018-07-01T22:36:42.099Z,69.70
2018-07-01T22:39:17.711Z,69.54
2018-07-01T22:41:48.236Z,68.29
2018-07-01T22:44:18.361Z,69.47
2018-07-01T22:46:49.055Z,71.31
2018-07-01T22:49:19.012Z,70.13
2018-07-01T22:51:48.843Z,70.87
2018-07-01T22:54:18.792Z,71.78
2018-07-01T22:56:49.196Z,73.02
2018-07-01T22:59:19.110Z,72.42
2018-07-01T23:03:08.025Z,72.94
2018-07-01T23:05:38.083Z,73.55
2018-07-01T23:08:08.003Z,72.62
2018-07-01T23:10:38.107Z,72.61
2018-07-01T23:13:08.139Z,72.60
2018-07-01T23:15:38.240Z,72.87
2018-07-01T23:18:08.039Z,71.21
2018-07-01T23:20:38.858Z,72.48
2018-07-01T23:23:08.718Z,71.04
2018-07-01T23:25:38.576Z,71.78
2018-07-01T23:28:08.601Z,71.61
2018-07-01T23:30:38.685Z,71.51
2018-07-01T23:33:08.511Z,70.69
2018-07-01T23:35:38.523Z,70.95
2018-07-01T23:38:08.302Z,71.96
2018-07-01T23:40:38.293Z,74.22
2018-07-01T23:43:08.154Z,75.09
2018-07-01T23:45:38.065Z,73.52
2018-07-01T23:48:08.621Z,73.60
2018-07-01T23:50:38.454Z,73.54
2018-07-01T23:53:08.313Z,73.57
2018-07-01T23:55:38.240Z,73.29
2018-07-01T23:58:08.328Z,72.93
